createdAt,value
2022-12-20T00:02:13.191Z,6.54
2022-12-20T00:04:41.192Z,6.84
2022-12-20T00:07:09.262Z,6.77
2022-12-20T00:09:37.619Z,6.63
2022-12-20T00:12:05.899Z,6.73
2022-12-20T00:14:33.795Z,6.81
2022-12-20T00:17:01.734Z,6.54
2022-12-20T00:19:31.012Z,6.65
2022-12-20T00:21:58.941Z,6.59
2022-12-20T00:24:26.876Z,6.54
2022-12-20T00:26:54.838Z,6.56
2022-12-20T00:29:22.824Z,6.72
2022-12-20T00:31:50.799Z,6.67
2022-12-20T00:34:18.825Z,6.86
2022-12-20T00:36:48.124Z,6.63
2022-12-20T00:39:16.021Z,6.70
2022-12-20T00:41:44.114Z,6.73
2022-12-20T00:44:12.001Z,6.82
2022-12-20T00:46:40.015Z,6.75
2022-12-20T00:49:08.377Z,6.66
2022-12-20T00:51:36.289Z,6.70
2022-12-20T00:54:05.833Z,6.78
2022-12-20T00:56:33.945Z,6.87
2022-12-20T00:59:01.906Z,6.59
2022-12-20T01:01:31.857Z,6.66
2022-12-20T01:04:00.262Z,6.97
2022-12-20T01:06:28.645Z,7.04
2022-12-20T01:08:56.781Z,7.00
2022-12-20T01:11:27.254Z,6.92
2022-12-20T01:13:56.934Z,7.18
2022-12-20T01:16:26.716Z,7.14
2022-12-20T01:18:55.264Z,7.08
2022-12-20T01:21:25.254Z,6.95
2022-12-20T01:23:53.423Z,6.94
2022-12-20T01:26:23.288Z,7.06
2022-12-20T01:28:54.974Z,6.88
2022-12-20T01:31:23.720Z,7.20
2022-12-20T01:33:52.409Z,7.00
2022-12-20T01:36:22.788Z,7.29
2022-12-20T01:38:50.725Z,7.33
2022-12-20T01:41:20.112Z,7.26
2022-12-20T01:43:52.801Z,7.45
2022-12-20T01:46:22.443Z,7.59
2022-12-20T01:48:55.466Z,7.41
2022-12-20T01:51:24.623Z,7.39
2022-12-20T01:53:56.608Z,7.22
2022-12-20T01:56:24.591Z,7.35
2022-12-20T01:58:55.094Z,7.13
2022-12-20T02:01:23.859Z,7.22
2022-12-20T02:03:52.801Z,7.27
2022-12-20T02:06:22.179Z,7.41
2022-12-20T02:08:51.480Z,7.63
2022-12-20T02:11:30.540Z,7.52
2022-12-20T02:14:08.636Z,7.47
2022-12-20T02:16:43.162Z,7.43
2022-12-20T02:19:22.057Z,7.63
2022-12-20T02:21:54.661Z,7.66
2022-12-20T02:24:51.863Z,7.61
2022-12-20T02:27:45.272Z,7.49
2022-12-20T02:30:16.856Z,7.44
2022-12-20T02:32:59.203Z,7.36
2022-12-20T02:35:29.335Z,7.22
2022-12-20T02:37:59.980Z,7.28
2022-12-20T02:40:30.127Z,7.20
2022-12-20T02:43:00.888Z,7.11
2022-12-20T02:45:34.015Z,7.22
2022-12-20T02:48:04.840Z,7.18
2022-12-20T02:50:35.850Z,7.17
2022-12-20T02:53:04.114Z,7.32
2022-12-20T02:55:38.657Z,7.31
2022-12-20T02:58:08.257Z,7.25
2022-12-20T03:00:41.540Z,7.40
2022-12-20T03:03:25.845Z,7.34
2022-12-20T03:05:55.342Z,7.43
2022-12-20T03:08:24.335Z,7.47
2022-12-20T03:10:53.347Z,7.38
2022-12-20T03:13:21.715Z,7.58
2022-12-20T03:15:51.190Z,7.63
2022-12-20T03:18:19.188Z,7.66
2022-12-20T03:20:47.132Z,7.55
2022-12-20T03:23:15.125Z,7.65
2022-12-20T03:25:43.021Z,7.46
2022-12-20T03:28:11.099Z,7.61
2022-12-20T03:30:39.121Z,7.77
2022-12-20T03:33:08.600Z,7.72
2022-12-20T03:35:36.519Z,7.68
2022-12-20T03:38:04.546Z,7.88
2022-12-20T03:40:32.653Z,7.89
2022-12-20T03:43:00.571Z,7.99
2022-12-20T03:45:28.500Z,7.91
2022-12-20T03:47:56.434Z,7.91
2022-12-20T03:50:25.751Z,7.85
2022-12-20T03:52:53.672Z,7.86
2022-12-20T03:55:21.589Z,7.81
2022-12-20T03:57:49.504Z,7.84
2022-12-20T04:00:18.629Z,7.80
2022-12-20T04:02:46.705Z,7.66
2022-12-20T04:05:14.795Z,7.67
2022-12-20T04:07:45.419Z,7.62
2022-12-20T04:10:13.558Z,7.63
2022-12-20T04:12:41.486Z,7.60
2022-12-20T04:15:10.012Z,7.62
2022-12-20T04:17:37.968Z,7.66
2022-12-20T04:20:19.163Z,7.62
2022-12-20T04:22:48.855Z,7.60
2022-12-20T04:25:18.291Z,7.62
2022-12-20T04:27:46.381Z,7.61
2022-12-20T04:30:15.111Z,7.61
2022-12-20T04:32:43.106Z,7.69
2022-12-20T04:35:11.335Z,7.79
2022-12-20T04:37:39.271Z,7.74
2022-12-20T04:40:10.438Z,7.79
2022-12-20T04:42:38.364Z,7.73
2022-12-20T04:45:07.108Z,7.75
2022-12-20T04:47:35.105Z,7.72
2022-12-20T04:50:03.052Z,7.63
2022-12-20T04:52:48.554Z,7.65
2022-12-20T04:55:18.344Z,7.60
2022-12-20T04:57:46.415Z,7.53
2022-12-20T05:00:15.844Z,7.53
2022-12-20T05:02:44.010Z,7.54
2022-12-20T05:05:12.075Z,7.49
2022-12-20T05:07:39.952Z,7.49
2022-12-20T05:10:08.738Z,7.55
2022-12-20T05:12:38.133Z,7.51
2022-12-20T05:15:07.515Z,7.44
2022-12-20T05:17:35.538Z,7.35
2022-12-20T05:20:03.685Z,7.37
2022-12-20T05:22:48.829Z,7.40
2022-12-20T05:25:34.238Z,7.49
2022-12-20T05:28:03.617Z,7.49
2022-12-20T05:30:31.583Z,7.41
2022-12-20T05:32:59.499Z,7.50
2022-12-20T05:35:27.441Z,7.40
2022-12-20T05:37:55.539Z,7.53
2022-12-20T05:40:23.502Z,7.62
2022-12-20T05:42:51.451Z,7.61
2022-12-20T05:45:20.743Z,7.67
2022-12-20T05:47:49.199Z,7.64
2022-12-20T05:50:19.189Z,7.66
2022-12-20T05:52:47.327Z,7.66
2022-12-20T05:55:15.418Z,7.58
2022-12-20T05:57:43.377Z,7.57
2022-12-20T06:00:13.336Z,7.55
2022-12-20T06:02:42.786Z,7.61
2022-12-20T06:05:11.141Z,7.62
2022-12-20T06:07:39.109Z,7.61
2022-12-20T06:10:08.378Z,7.63
2022-12-20T06:12:36.324Z,7.70
2022-12-20T06:15:04.364Z,7.79
2022-12-20T06:17:32.523Z,7.89
2022-12-20T06:20:01.895Z,7.96
2022-12-20T06:22:29.832Z,7.98
2022-12-20T06:24:57.718Z,7.89
2022-12-20T06:27:25.790Z,7.97
2022-12-20T06:29:54.586Z,8.03
2022-12-20T06:32:22.757Z,8.14
2022-12-20T06:34:51.702Z,7.91
2022-12-20T06:37:21.056Z,8.13
2022-12-20T06:39:48.980Z,8.07
2022-12-20T06:42:17.084Z,8.03
2022-12-20T06:44:44.983Z,8.09
2022-12-20T06:47:13.902Z,7.98
2022-12-20T06:49:41.988Z,7.99
2022-12-20T06:52:10.053Z,8.08
2022-12-20T06:54:39.516Z,8.11
2022-12-20T06:57:08.004Z,8.07
2022-12-20T06:59:36.325Z,8.07
2022-12-20T07:02:05.070Z,7.94
2022-12-20T07:04:33.481Z,8.33
2022-12-20T07:07:01.435Z,8.23
2022-12-20T07:09:29.935Z,8.10
2022-12-20T07:11:59.930Z,8.23
2022-12-20T07:14:28.055Z,8.18
2022-12-20T07:16:56.084Z,8.39
2022-12-20T07:19:24.075Z,8.37
2022-12-20T07:21:54.139Z,8.35
2022-12-20T07:24:22.079Z,8.36
2022-12-20T07:26:50.018Z,8.30
2022-12-20T07:29:19.452Z,8.33
2022-12-20T07:31:47.496Z,8.24
2022-12-20T07:34:15.491Z,8.38
2022-12-20T07:36:43.736Z,8.28
2022-12-20T07:39:11.724Z,8.19
2022-12-20T07:41:39.687Z,8.43
2022-12-20T07:44:07.861Z,8.29
2022-12-20T07:46:37.263Z,8.34
2022-12-20T07:49:05.773Z,8.41
2022-12-20T07:51:37.880Z,8.36
2022-12-20T07:54:10.584Z,8.20
2022-12-20T07:56:41.717Z,8.24
2022-12-20T07:59:11.223Z,8.29
2022-12-20T08:01:41.758Z,8.24
2022-12-20T08:04:12.511Z,8.20
2022-12-20T08:06:40.767Z,8.20
2022-12-20T08:09:09.788Z,8.23
2022-12-20T08:11:38.513Z,8.20
2022-12-20T08:14:08.321Z,8.24
2022-12-20T08:16:36.421Z,8.25
2022-12-20T08:19:06.135Z,8.33
2022-12-20T08:21:34.398Z,8.24
2022-12-20T08:24:02.332Z,8.28
2022-12-20T08:26:30.243Z,8.38
2022-12-20T08:28:58.182Z,8.24
2022-12-20T08:31:26.180Z,8.44
2022-12-20T08:33:56.202Z,8.45
2022-12-20T08:36:25.566Z,8.43
2022-12-20T08:38:53.595Z,8.46
2022-12-20T08:41:21.581Z,8.49
2022-12-20T08:43:49.629Z,8.45
2022-12-20T08:46:17.607Z,8.41
2022-12-20T08:48:48.732Z,8.61
2022-12-20T08:51:16.822Z,8.57
2022-12-20T08:53:46.237Z,8.55
2022-12-20T08:56:15.797Z,8.60
2022-12-20T08:58:44.663Z,8.64
2022-12-20T09:01:15.018Z,8.59
2022-12-20T09:03:43.749Z,8.69
2022-12-20T09:06:14.639Z,8.67
2022-12-20T09:08:42.926Z,8.68
2022-12-20T09:11:13.982Z,8.76
2022-12-20T09:13:44.419Z,8.67
2022-12-20T09:16:14.985Z,8.47
2022-12-20T09:18:43.308Z,8.68
2022-12-20T09:21:12.307Z,8.81
2022-12-20T09:23:49.206Z,8.80
2022-12-20T09:26:19.535Z,8.85
2022-12-20T09:28:48.612Z,8.85
2022-12-20T09:31:18.071Z,8.85
2022-12-20T09:33:46.429Z,8.75
2022-12-20T09:36:15.594Z,8.93
2022-12-20T09:38:43.579Z,8.95
2022-12-20T09:41:25.762Z,8.85
2022-12-20T09:43:53.798Z,8.92
2022-12-20T09:46:22.059Z,8.83
2022-12-20T09:48:50.350Z,8.86
2022-12-20T09:51:33.452Z,8.94
2022-12-20T09:54:08.546Z,8.89
2022-12-20T09:56:39.231Z,8.84
2022-12-20T09:59:09.516Z,8.84
2022-12-20T10:01:39.957Z,8.90
2022-12-20T10:04:13.768Z,9.01
2022-12-20T10:06:48.674Z,8.96
2022-12-20T10:09:30.274Z,8.90
2022-12-20T10:12:13.193Z,9.01
2022-12-20T10:14:55.622Z,9.07
2022-12-20T10:17:32.644Z,9.10
2022-12-20T10:20:21.306Z,9.12
2022-12-20T10:22:53.373Z,9.08
2022-12-20T10:25:23.989Z,9.06
2022-12-20T10:27:57.059Z,9.09
2022-12-20T10:30:27.994Z,9.05
2022-12-20T10:32:57.569Z,9.12
2022-12-20T10:35:29.152Z,9.21
2022-12-20T10:38:09.798Z,9.13
2022-12-20T10:41:18.521Z,9.34
2022-12-20T10:43:29.157Z,9.36
2022-12-20T10:45:59.363Z,9.24
2022-12-20T10:48:31.465Z,9.28
2022-12-20T10:51:04.084Z,9.42
2022-12-20T10:53:33.353Z,9.48
2022-12-20T10:56:20.746Z,9.55
2022-12-20T10:58:58.793Z,9.64
2022-12-20T11:01:30.742Z,9.61
2022-12-20T11:04:01.459Z,9.65
2022-12-20T11:06:41.994Z,9.65
2022-12-20T11:09:31.196Z,9.68
2022-12-20T11:12:08.196Z,9.71
2022-12-20T11:14:39.901Z,9.71
2022-12-20T11:17:22.604Z,9.73
2022-12-20T11:20:08.201Z,9.79
2022-12-20T11:22:46.693Z,9.73
2022-12-20T11:25:26.591Z,9.75
2022-12-20T11:28:00.890Z,9.83
2022-12-20T11:30:34.869Z,9.91
2022-12-20T11:33:15.842Z,9.89
2022-12-20T11:35:52.148Z,9.87
2022-12-20T11:38:29.444Z,9.92
2022-12-20T11:41:13.229Z,9.81
2022-12-20T11:44:24.592Z,9.86
2022-12-20T11:47:03.048Z,9.93
2022-12-20T11:49:48.651Z,9.86
2022-12-20T11:52:23.793Z,9.72
2022-12-20T11:55:00.524Z,9.75
2022-12-20T11:57:38.346Z,9.83
2022-12-20T12:00:19.873Z,9.89
2022-12-20T12:02:58.377Z,9.95
2022-12-20T12:05:30.915Z,9.81
2022-12-20T12:08:02.545Z,9.69
2022-12-20T12:10:33.259Z,9.70
2022-12-20T12:13:08.375Z,9.66
2022-12-20T12:15:41.564Z,9.57
2022-12-20T12:18:16.485Z,9.47
2022-12-20T12:20:51.034Z,9.63
2022-12-20T12:23:24.435Z,9.54
2022-12-20T12:25:53.278Z,9.40
2022-12-20T12:28:22.177Z,9.40
2022-12-20T12:30:54.257Z,9.34
2022-12-20T12:33:26.905Z,9.31
2022-12-20T12:36:23.911Z,9.31
2022-12-20T12:39:15.197Z,9.37
2022-12-20T12:42:17.883Z,9.29
2022-12-20T12:44:51.264Z,9.26
2022-12-20T12:47:23.057Z,9.21
2022-12-20T12:49:54.716Z,9.26
2022-12-20T12:52:44.718Z,9.26
2022-12-20T12:55:41.965Z,9.19
2022-12-20T12:58:35.416Z,9.22
2022-12-20T13:01:08.277Z,9.18
2022-12-20T13:03:46.255Z,9.07
2022-12-20T13:06:52.693Z,9.09
2022-12-20T13:09:23.897Z,9.05
2022-12-20T13:12:00.398Z,9.01
2022-12-20T13:14:51.298Z,9.03
2022-12-20T13:17:54.089Z,8.94
2022-12-20T13:20:24.644Z,9.09
2022-12-20T13:23:17.561Z,9.02
2022-12-20T13:25:49.816Z,9.03
2022-12-20T13:28:49.090Z,9.13
2022-12-20T13:31:37.765Z,9.03
2022-12-20T13:34:41.352Z,9.08
2022-12-20T13:37:27.564Z,9.00
2022-12-20T13:39:58.306Z,9.05
2022-12-20T13:42:45.706Z,9.05
2022-12-20T13:45:15.600Z,9.01
2022-12-20T13:47:52.979Z,8.92
2022-12-20T13:51:27.909Z,8.93
2022-12-20T13:54:27.820Z,8.91
2022-12-20T14:30:49.894Z,8.97
2022-12-20T14:36:39.102Z,8.93
2022-12-20T14:39:37.319Z,8.77
2022-12-20T14:42:58.024Z,8.87
2022-12-20T14:45:42.337Z,8.88
2022-12-20T15:03:17.276Z,8.86
2022-12-20T15:05:50.520Z,8.84
2022-12-20T15:08:23.259Z,8.97
2022-12-20T15:11:07.418Z,8.86
2022-12-20T15:13:46.448Z,8.81
2022-12-20T15:16:17.493Z,8.83
2022-12-20T15:18:46.531Z,8.86
2022-12-20T15:21:29.026Z,8.77
2022-12-20T15:24:37.301Z,8.70
2022-12-20T15:34:55.349Z,8.84
2022-12-20T15:37:23.229Z,8.86
2022-12-20T15:39:51.137Z,8.80
2022-12-20T15:42:19.885Z,8.78
2022-12-20T15:44:48.376Z,8.80
2022-12-20T15:47:17.340Z,8.81
2022-12-20T15:49:50.026Z,8.78
2022-12-20T15:52:22.200Z,8.82
2022-12-20T15:54:50.583Z,8.88
2022-12-20T15:57:18.668Z,8.90
2022-12-20T16:00:03.442Z,8.77
2022-12-20T16:02:32.751Z,8.85
2022-12-20T16:05:01.628Z,8.73
2022-12-20T16:07:31.040Z,8.79
2022-12-20T16:10:00.453Z,8.91
2022-12-20T16:12:29.847Z,8.99
2022-12-20T16:14:57.742Z,8.97
2022-12-20T16:17:25.724Z,8.81
2022-12-20T16:19:53.625Z,8.91
2022-12-20T16:22:23.146Z,8.94
2022-12-20T16:24:52.865Z,8.94
2022-12-20T16:27:21.626Z,8.97
2022-12-20T16:29:49.563Z,8.91
2022-12-20T16:32:18.482Z,9.02
2022-12-20T16:34:46.807Z,8.98
2022-12-20T16:37:14.803Z,9.02
2022-12-20T16:39:43.057Z,8.98
2022-12-20T16:42:15.195Z,8.94
2022-12-20T16:44:45.606Z,8.98
2022-12-20T16:47:14.963Z,8.98
2022-12-20T16:49:49.672Z,9.13
2022-12-20T16:52:20.700Z,8.95
2022-12-20T16:54:48.666Z,8.97
2022-12-20T16:57:17.999Z,9.03
2022-12-20T16:59:45.951Z,8.99
2022-12-20T17:02:23.456Z,9.10
2022-12-20T17:04:52.165Z,8.99
2022-12-20T17:07:20.119Z,9.06
2022-12-20T17:09:48.033Z,8.97
2022-12-20T17:12:18.234Z,9.02
2022-12-20T17:14:46.456Z,9.02
2022-12-20T17:17:14.383Z,9.14
2022-12-20T17:19:42.575Z,9.11
2022-12-20T17:24:57.860Z,9.14
2022-12-20T17:27:27.154Z,9.16
2022-12-20T17:29:55.079Z,9.13
2022-12-20T17:32:24.667Z,9.03
2022-12-20T17:34:54.336Z,9.06
2022-12-20T17:37:22.340Z,9.23
2022-12-20T17:39:50.322Z,9.06
2022-12-20T17:42:18.327Z,8.98
2022-12-20T17:44:47.713Z,9.10
2022-12-20T17:47:17.334Z,9.08
2022-12-20T17:49:45.340Z,9.19
2022-12-20T17:52:14.802Z,9.12
2022-12-20T17:54:42.834Z,9.23
2022-12-20T17:57:14.469Z,9.17
2022-12-20T17:59:42.576Z,9.16
2022-12-20T18:02:21.323Z,9.17
2022-12-20T18:04:49.496Z,9.16
2022-12-20T18:07:17.577Z,9.03
2022-12-20T18:09:47.805Z,9.09
2022-12-20T18:12:15.931Z,9.12
2022-12-20T18:14:43.852Z,9.17
2022-12-20T18:17:12.111Z,9.16
2022-12-20T18:19:41.475Z,9.08
2022-12-20T18:22:09.368Z,9.16
2022-12-20T18:24:37.293Z,9.10
2022-12-20T18:27:05.171Z,9.17
2022-12-20T18:29:33.160Z,9.12
2022-12-20T18:32:01.151Z,9.17
2022-12-20T18:34:29.180Z,9.06
2022-12-20T18:36:58.490Z,9.04
2022-12-20T18:39:26.467Z,9.04
2022-12-20T18:41:54.392Z,9.13
2022-12-20T18:44:22.359Z,8.94
2022-12-20T18:46:50.279Z,9.02
2022-12-20T18:49:18.211Z,9.07
2022-12-20T18:51:46.144Z,8.96
2022-12-20T18:54:15.852Z,8.98
2022-12-20T18:56:43.899Z,8.86
2022-12-20T18:59:12.960Z,8.81
2022-12-20T19:01:42.627Z,8.91
2022-12-20T19:04:11.825Z,9.02
2022-12-20T19:06:40.265Z,8.93
2022-12-20T19:09:09.711Z,8.86
2022-12-20T19:11:39.208Z,8.98
2022-12-20T19:14:08.886Z,8.96
2022-12-20T19:16:39.626Z,9.01
2022-12-20T19:19:08.331Z,8.86
2022-12-20T19:21:37.945Z,9.01
2022-12-20T19:24:08.095Z,8.91
2022-12-20T19:26:39.097Z,8.90
2022-12-20T19:29:07.484Z,8.79
2022-12-20T19:31:37.474Z,8.83
2022-12-20T19:34:07.603Z,8.84
2022-12-20T19:36:38.548Z,8.78
2022-12-20T19:39:08.183Z,8.80
2022-12-20T19:41:36.640Z,8.83
2022-12-20T19:44:06.302Z,8.87
2022-12-20T19:46:34.634Z,8.86
2022-12-20T19:49:03.423Z,8.74
2022-12-20T19:51:31.655Z,8.82
2022-12-20T19:54:00.016Z,8.79
2022-12-20T19:56:30.262Z,8.86
2022-12-20T19:58:58.250Z,8.80
2022-12-20T20:01:28.356Z,8.77
2022-12-20T20:03:57.507Z,8.68
2022-12-20T20:06:27.653Z,8.64
2022-12-20T20:08:57.804Z,8.68
2022-12-20T20:11:25.891Z,8.67
2022-12-20T20:13:53.927Z,8.69
2022-12-20T20:16:23.289Z,8.78
2022-12-20T20:18:52.781Z,8.73
2022-12-20T20:21:22.658Z,8.72
2022-12-20T20:23:51.365Z,8.66
2022-12-20T20:26:20.861Z,8.72
2022-12-20T20:28:48.754Z,8.65
2022-12-20T20:31:17.742Z,8.68
2022-12-20T20:33:46.187Z,8.64
2022-12-20T20:36:16.900Z,8.64
2022-12-20T20:38:45.711Z,8.53
2022-12-20T20:41:13.998Z,8.60
2022-12-20T20:43:42.169Z,8.67
2022-12-20T20:46:12.549Z,8.59
2022-12-20T20:48:41.331Z,8.65
2022-12-20T20:51:09.605Z,8.59
2022-12-20T20:53:39.426Z,8.68
2022-12-20T20:56:08.420Z,8.54
2022-12-20T20:58:37.004Z,8.67
2022-12-20T21:01:08.532Z,8.64
2022-12-20T21:03:36.849Z,8.71
2022-12-20T21:06:37.188Z,8.79
2022-12-20T21:08:56.531Z,8.70
2022-12-20T21:11:24.809Z,8.61
2022-12-20T21:13:54.555Z,8.76
2022-12-20T21:16:22.894Z,8.64
2022-12-20T21:18:51.946Z,8.71
2022-12-20T21:21:20.493Z,8.73
2022-12-20T21:23:48.863Z,8.65
2022-12-20T21:26:19.488Z,8.51
2022-12-20T21:28:47.516Z,8.75
2022-12-20T21:31:18.594Z,8.67
2022-12-20T21:33:47.045Z,8.63
2022-12-20T21:36:16.383Z,8.72
2022-12-20T21:38:48.589Z,8.53
2022-12-20T21:41:16.515Z,8.78
2022-12-20T21:43:46.158Z,8.77
2022-12-20T21:46:14.199Z,8.55
2022-12-20T21:48:43.372Z,8.75
2022-12-20T21:51:13.919Z,8.71
2022-12-20T21:53:43.319Z,8.76
2022-12-20T21:56:11.360Z,8.74
2022-12-20T21:58:39.640Z,8.55
2022-12-20T22:01:09.794Z,8.67
2022-12-20T22:03:38.381Z,8.70
2022-12-20T22:06:06.694Z,8.69
2022-12-20T22:08:35.381Z,8.65
2022-12-20T22:11:05.294Z,8.59
2022-12-20T22:13:40.664Z,8.69
2022-12-20T22:16:13.127Z,8.67
2022-12-20T22:18:41.967Z,8.80
2022-12-20T22:21:11.719Z,8.69
2022-12-20T22:23:39.953Z,8.70
2022-12-20T22:26:10.819Z,8.69
2022-12-20T22:28:38.904Z,8.72
2022-12-20T22:31:12.042Z,8.76
2022-12-20T22:33:40.124Z,8.73
2022-12-20T22:36:09.150Z,8.58
2022-12-20T22:38:37.165Z,8.74
2022-12-20T22:41:09.660Z,8.58
2022-12-20T22:43:37.986Z,8.55
2022-12-20T22:46:06.275Z,8.73
2022-12-20T22:48:35.652Z,8.68
2022-12-20T22:51:05.473Z,8.72
2022-12-20T22:53:33.915Z,8.86
2022-12-20T22:56:02.080Z,8.73
2022-12-20T22:58:30.597Z,8.67
2022-12-20T23:00:58.919Z,8.70
2022-12-20T23:03:27.480Z,8.66
2022-12-20T23:05:57.799Z,8.69
2022-12-20T23:08:28.032Z,8.76
2022-12-20T23:11:13.315Z,8.78
2022-12-20T23:13:59.232Z,8.72
2022-12-20T23:16:27.477Z,8.67
2022-12-20T23:18:55.731Z,8.67
2022-12-20T23:21:42.970Z,8.69
2022-12-20T23:24:11.283Z,8.62
2022-12-20T23:26:40.121Z,8.64
2022-12-20T23:29:08.897Z,8.68
2022-12-20T23:31:36.953Z,8.56
2022-12-20T23:34:05.126Z,8.42
2022-12-20T23:36:34.582Z,8.53
2022-12-20T23:39:03.006Z,8.38
2022-12-20T23:41:30.896Z,8.27
2022-12-20T23:43:58.933Z,8.46
2022-12-20T23:46:27.251Z,8.62
2022-12-20T23:48:55.334Z,8.78
2022-12-20T23:51:23.307Z,8.81
2022-12-20T23:53:53.229Z,8.73
2022-12-20T23:56:22.402Z,8.71
2022-12-20T23:58:54.394Z,8.65
